CheckWX is a tool to help pilots better visualize weather data.  It is not intended as a substitute for an official pre-flight weather briefing.

03:18:05 UTC

KMEM METAR
Memphis International Airport
Memphis, Tennessee, USA
Current

24 mins ago

KMEM 270254Z 00000KT 10SM BKN250 28/17 A3003 RMK AO2 SLP163 T02780167 55000 $
Observed
May-27 @ 02:54 UTC
Visibility
10 SM
Flight Rules
VFR
Cloud Levels
  • Broken at 25,000' AGL
Temperature
28°C / 82°F
Dewpoint
17°C / 63°F
Heat Index
28°C / 83°F
Humidity
51%
Altimeter
30.03" Hg
Pressure
1016.92 hPa
Previous

1 hour ago

KMEM 270154Z 20004KT 10SM BKN250 28/19 A3002 RMK AO2 SLP162 T02780189 $
Observed
May-27 @ 01:54 UTC
Wind
  • 200° at 4 KTS
Visibility
10 SM
Flight Rules
VFR
Cloud Levels
  • Broken at 25,000' AGL
Temperature
28°C / 82°F
Dewpoint
19°C / 66°F
Heat Index
29°C / 84°F
Humidity
58%
Altimeter
30.02" Hg
Pressure
1016.62 hPa
Previous

2 hours ago

KMEM 270054Z 22003KT 10SM BKN250 29/19 A3002 RMK AO2 SLP162 T02890189 $
Observed
May-27 @ 00:54 UTC
Wind
  • 220° at 3 KTS
Visibility
10 SM
Flight Rules
VFR
Cloud Levels
  • Broken at 25,000' AGL
Temperature
29°C / 84°F
Dewpoint
19°C / 66°F
Heat Index
30°C / 86°F
Humidity
55%
Altimeter
30.02" Hg
Pressure
1016.62 hPa